createdAt,value
2022-09-05T00:02:01.518Z,6.57
2022-09-05T00:04:52.022Z,7.73
2022-09-05T00:07:58.958Z,6.27
2022-09-05T00:10:51.951Z,5.73
2022-09-05T00:13:36.235Z,5.50
2022-09-05T00:16:49.243Z,6.33
2022-09-05T00:24:18.845Z,5.50
2022-09-05T00:24:31.787Z,5.07
2022-09-05T00:25:52.370Z,5.40
2022-09-05T00:28:35.002Z,5.30
2022-09-05T00:31:56.088Z,5.40
2022-09-05T00:34:19.611Z,14.63
2022-09-05T00:36:55.418Z,5.00
2022-09-05T00:39:34.078Z,9.23
2022-09-05T00:42:15.206Z,5.80
2022-09-05T00:45:00.305Z,5.40
2022-09-05T00:47:47.942Z,5.33
2022-09-05T00:50:59.112Z,5.33
2022-09-05T00:53:41.150Z,5.23
2022-09-05T00:56:32.810Z,5.80
2022-09-05T00:59:24.646Z,5.13
2022-09-05T01:02:06.967Z,4.80
2022-09-05T01:04:41.586Z,4.70
2022-09-05T01:07:51.072Z,5.20
2022-09-05T01:10:47.858Z,4.77
2022-09-05T01:13:41.362Z,4.53
2022-09-05T01:16:55.237Z,4.80
2022-09-05T01:19:38.942Z,4.70
2022-09-05T01:22:22.301Z,5.07
2022-09-05T01:25:18.727Z,4.47
2022-09-05T01:29:16.181Z,4.93
2022-09-05T01:31:15.503Z,6.60
2022-09-05T01:34:05.047Z,5.17
2022-09-05T01:36:51.918Z,4.23
2022-09-05T01:40:15.411Z,6.43
2022-09-05T01:42:55.359Z,5.50
2022-09-05T01:45:50.995Z,5.00
2022-09-05T01:48:52.443Z,5.63
2022-09-05T01:51:52.675Z,5.53
2022-09-05T01:54:52.011Z,5.10
2022-09-05T01:57:29.554Z,6.53
2022-09-05T02:00:18.474Z,6.03
2022-09-05T02:03:14.504Z,5.00
2022-09-05T02:06:23.557Z,9.63
2022-09-05T02:09:23.082Z,5.70
2022-09-05T02:12:03.218Z,5.73
2022-09-05T02:14:55.700Z,5.83
2022-09-05T02:17:50.609Z,5.80
2022-09-05T02:20:32.769Z,5.40
2022-09-05T02:23:04.538Z,4.43
2022-09-05T02:26:19.011Z,4.50
2022-09-05T02:29:07.074Z,5.10
2022-09-05T02:31:58.587Z,7.87
2022-09-05T02:34:38.921Z,5.23
2022-09-05T02:39:24.033Z,5.47
2022-09-05T02:45:02.754Z,5.50
2022-09-05T02:45:13.550Z,6.20
2022-09-05T02:46:56.595Z,5.80
2022-09-05T02:52:10.580Z,5.23
2022-09-05T02:57:25.002Z,7.77
2022-09-05T02:57:33.718Z,6.03
2022-09-05T02:59:12.204Z,6.77
2022-09-05T03:01:56.426Z,8.33
2022-09-05T03:04:46.086Z,5.50
2022-09-05T03:07:46.079Z,6.70
2022-09-05T03:10:53.189Z,7.17
2022-09-05T03:13:54.401Z,9.63
2022-09-05T03:16:47.474Z,5.60
2022-09-05T03:20:09.523Z,6.33
2022-09-05T03:23:12.083Z,5.60
2022-09-05T03:26:16.914Z,5.70
2022-09-05T03:29:26.050Z,5.27
2022-09-05T03:32:16.718Z,5.40
2022-09-05T03:35:08.832Z,5.93
2022-09-05T03:38:08.924Z,7.10
2022-09-05T03:40:40.586Z,5.90
2022-09-05T03:43:36.517Z,5.63
2022-09-05T03:46:14.569Z,5.00
2022-09-05T03:49:24.499Z,7.40
2022-09-05T03:57:06.778Z,5.37
2022-09-05T03:57:26.578Z,4.60
2022-09-05T03:58:55.784Z,5.47
2022-09-05T04:04:22.755Z,5.43
2022-09-05T04:08:17.180Z,5.20
2022-09-05T04:08:28.024Z,4.87
2022-09-05T04:11:08.361Z,6.77
2022-09-05T04:13:56.207Z,8.03
2022-09-05T04:16:48.477Z,5.73
2022-09-05T04:19:24.391Z,7.07
2022-09-05T04:22:14.514Z,5.73
2022-09-05T04:25:14.627Z,4.77
2022-09-05T04:27:49.354Z,4.83
2022-09-05T04:31:03.246Z,5.37
2022-09-05T04:34:02.373Z,5.13
2022-09-05T04:36:36.603Z,5.43
2022-09-05T04:39:17.520Z,5.70
2022-09-05T04:42:22.634Z,8.63
2022-09-05T04:45:10.007Z,6.10
2022-09-05T04:47:52.382Z,5.13
2022-09-05T04:50:24.989Z,5.33
2022-09-05T04:53:02.783Z,5.33
2022-09-05T04:55:50.513Z,5.90
2022-09-05T04:59:56.662Z,5.50
2022-09-05T05:06:15.487Z,5.78
2022-09-05T05:06:19.944Z,5.53
2022-09-05T05:07:47.213Z,5.80
2022-09-05T05:15:56.575Z,6.00
2022-09-05T05:18:01.746Z,6.83
2022-09-05T05:18:15.463Z,5.43
2022-09-05T05:19:39.210Z,8.27
2022-09-05T05:22:15.928Z,5.93
2022-09-05T05:24:53.339Z,6.13
2022-09-05T05:27:45.630Z,6.30
2022-09-05T05:30:27.539Z,6.43
2022-09-05T05:33:03.436Z,5.30
2022-09-05T05:35:35.779Z,6.27
2022-09-05T05:38:32.974Z,5.53
2022-09-05T05:41:27.962Z,5.50
2022-09-05T05:43:59.746Z,5.60
2022-09-05T05:46:36.314Z,5.87
2022-09-05T05:49:27.431Z,8.77
2022-09-05T05:52:33.958Z,8.90
2022-09-05T05:55:50.821Z,7.17
2022-09-05T05:58:52.236Z,7.20
2022-09-05T06:01:42.841Z,6.73
2022-09-05T06:04:45.600Z,7.10
2022-09-05T06:08:22.556Z,7.00
2022-09-05T06:14:56.377Z,7.37
2022-09-05T06:15:08.717Z,6.90
2022-09-05T06:18:04.273Z,6.53
2022-09-05T06:22:10.456Z,6.90
2022-09-05T06:24:26.474Z,6.70
2022-09-05T06:27:25.683Z,7.90
2022-09-05T06:30:07.090Z,6.83
2022-09-05T06:32:43.134Z,8.13
2022-09-05T06:35:36.115Z,7.50
2022-09-05T06:38:59.065Z,6.77
2022-09-05T06:41:55.761Z,8.10
2022-09-05T06:45:27.029Z,7.00
2022-09-05T06:48:01.885Z,6.00
2022-09-05T06:51:08.399Z,7.63
2022-09-05T06:54:10.043Z,6.37
2022-09-05T06:56:55.939Z,8.83
2022-09-05T06:59:39.630Z,5.63
2022-09-05T07:02:58.369Z,6.07
2022-09-05T07:05:40.372Z,5.97
2022-09-05T07:08:44.400Z,5.23
2022-09-05T07:11:24.703Z,6.00
2022-09-05T07:14:20.016Z,5.93
2022-09-05T07:16:55.746Z,6.27
2022-09-05T07:19:58.945Z,6.20
2022-09-05T07:23:20.335Z,6.30
2022-09-05T07:25:56.101Z,6.27
2022-09-05T07:28:30.492Z,5.63
2022-09-05T07:31:07.372Z,5.77
2022-09-05T07:33:40.048Z,7.00
2022-09-05T07:36:19.275Z,6.40
2022-09-05T07:39:07.141Z,5.47
2022-09-05T07:41:55.167Z,6.07
2022-09-05T07:44:40.342Z,5.90
2022-09-05T07:47:42.657Z,6.13
2022-09-05T07:53:46.412Z,5.13
2022-09-05T07:56:47.764Z,5.93
2022-09-05T07:57:09.637Z,5.60
2022-09-05T07:58:54.816Z,6.30
2022-09-05T08:01:26.750Z,6.80
2022-09-05T08:03:59.165Z,5.50
2022-09-05T08:07:48.007Z,5.93
2022-09-05T08:10:05.844Z,5.40
2022-09-05T08:13:22.995Z,6.40
2022-09-05T08:15:39.668Z,6.43
2022-09-05T08:18:37.118Z,4.57
2022-09-05T08:21:13.922Z,4.87
2022-09-05T08:24:13.716Z,5.73
2022-09-05T08:26:59.385Z,5.37
2022-09-05T08:29:41.746Z,5.43
2022-09-05T08:32:35.121Z,5.50
2022-09-05T08:35:10.927Z,5.10
2022-09-05T08:37:44.158Z,6.00
2022-09-05T08:40:30.990Z,5.00
2022-09-05T08:46:35.641Z,5.33
2022-09-05T08:46:45.991Z,5.37
2022-09-05T08:49:39.449Z,5.47
2022-09-05T08:52:51.795Z,4.80
2022-09-05T08:55:42.032Z,5.50
2022-09-05T08:58:35.699Z,4.67
2022-09-05T09:01:25.615Z,5.50
2022-09-05T09:05:01.875Z,5.27
2022-09-05T09:07:50.734Z,4.53
2022-09-05T09:11:05.919Z,4.80
2022-09-05T09:14:14.920Z,8.90
2022-09-05T09:17:26.849Z,4.90
2022-09-05T09:20:17.963Z,4.27
2022-09-05T09:23:03.868Z,4.80
2022-09-05T09:25:52.252Z,5.97
2022-09-05T09:28:50.507Z,5.07
2022-09-05T09:31:39.450Z,4.18
2022-09-05T09:34:26.281Z,4.15
2022-09-05T09:37:11.842Z,4.13
2022-09-05T09:39:58.396Z,4.72
2022-09-05T09:42:45.361Z,3.40
2022-09-05T09:45:28.337Z,4.45
2022-09-05T09:48:07.187Z,3.85
2022-09-05T09:51:00.791Z,3.20
2022-09-05T09:53:57.899Z,4.20
2022-09-05T09:56:53.941Z,3.47
2022-09-05T10:00:08.229Z,3.50
2022-09-05T10:04:39.602Z,3.42
2022-09-05T10:10:45.726Z,3.22
2022-09-05T10:10:50.600Z,3.22
2022-09-05T10:13:20.132Z,3.88
2022-09-05T10:16:14.302Z,3.30
2022-09-05T10:19:07.443Z,3.75
2022-09-05T10:21:41.930Z,3.15
2022-09-05T10:24:55.896Z,3.25
2022-09-05T10:28:04.491Z,3.15
2022-09-05T10:33:33.831Z,3.40
2022-09-05T10:35:18.067Z,4.32
2022-09-05T10:37:13.339Z,3.97
2022-09-05T10:39:51.041Z,2.90
2022-09-05T10:42:43.353Z,3.38
2022-09-05T10:45:45.942Z,2.92
2022-09-05T10:48:29.190Z,3.88
2022-09-05T10:51:06.098Z,3.78
2022-09-05T10:53:44.090Z,3.65
2022-09-05T10:56:26.122Z,3.00
2022-09-05T11:00:52.114Z,2.90
2022-09-05T11:02:26.570Z,3.38
2022-09-05T11:05:07.192Z,3.45
2022-09-05T11:08:04.423Z,3.15
2022-09-05T11:10:38.396Z,2.80
2022-09-05T11:13:19.972Z,3.50
2022-09-05T11:16:04.323Z,4.15
2022-09-05T11:19:00.206Z,2.97
2022-09-05T11:22:03.933Z,2.58
2022-09-05T11:24:59.585Z,3.42
2022-09-05T11:27:51.242Z,3.42
2022-09-05T11:30:30.135Z,3.53
2022-09-05T11:39:46.548Z,3.58
2022-09-05T11:40:02.466Z,3.60
2022-09-05T11:40:28.870Z,4.22
2022-09-05T11:43:07.184Z,4.70
2022-09-05T11:46:06.906Z,3.83
2022-09-05T11:48:57.155Z,3.72
2022-09-05T11:51:34.792Z,3.67
2022-09-05T11:54:26.594Z,3.60
2022-09-05T11:57:32.529Z,3.13
2022-09-05T12:00:34.272Z,3.28
2022-09-05T12:04:00.033Z,3.75
2022-09-05T12:07:16.031Z,2.97
2022-09-05T12:10:46.818Z,3.50
2022-09-05T12:13:21.865Z,3.47
2022-09-05T12:16:08.545Z,4.40
2022-09-05T12:18:54.190Z,3.40
2022-09-05T12:21:49.226Z,3.90
2022-09-05T12:25:24.161Z,5.33
2022-09-05T12:27:39.964Z,3.83
2022-09-05T12:30:46.366Z,3.83
2022-09-05T12:36:06.501Z,3.37
2022-09-05T12:40:44.540Z,3.63
2022-09-05T12:40:55.751Z,4.13
2022-09-05T12:42:58.832Z,3.43
2022-09-05T12:48:40.419Z,4.17
2022-09-05T12:51:45.327Z,3.93
2022-09-05T12:54:45.502Z,3.37
2022-09-05T13:00:46.594Z,3.33
2022-09-05T13:03:06.074Z,4.00
2022-09-05T13:03:35.534Z,4.43
2022-09-05T13:06:24.797Z,4.20
2022-09-05T13:09:13.771Z,3.97
2022-09-05T13:14:52.606Z,3.67
2022-09-05T13:15:23.277Z,4.10
2022-09-05T13:18:02.607Z,3.90
2022-09-05T13:20:49.065Z,4.60
2022-09-05T13:23:32.065Z,3.40
2022-09-05T13:26:52.122Z,4.17
2022-09-05T13:31:37.747Z,4.20
2022-09-05T13:37:55.135Z,3.77
2022-09-05T13:38:12.952Z,4.33
2022-09-05T13:39:06.541Z,3.67
2022-09-05T13:41:50.870Z,3.57
2022-09-05T13:44:27.298Z,4.20
2022-09-05T13:47:29.801Z,4.60
2022-09-05T13:50:22.334Z,4.03
2022-09-05T13:53:16.078Z,4.23
2022-09-05T13:56:03.348Z,4.57
2022-09-05T13:58:42.880Z,4.00
2022-09-05T14:01:51.210Z,3.63
2022-09-05T14:05:08.307Z,4.00
2022-09-05T14:08:19.853Z,3.87
2022-09-05T14:11:07.545Z,5.20
2022-09-05T14:14:11.087Z,4.47
2022-09-05T14:17:50.482Z,5.00
2022-09-05T14:20:14.608Z,3.97
2022-09-05T14:22:59.006Z,4.00
2022-09-05T14:25:38.894Z,4.00
2022-09-05T14:28:22.747Z,4.17
2022-09-05T14:36:20.143Z,4.10
2022-09-05T14:37:44.746Z,4.17
2022-09-05T14:38:04.282Z,4.30
2022-09-05T14:41:15.382Z,4.63
2022-09-05T14:43:59.287Z,5.93
2022-09-05T14:46:54.848Z,5.30
2022-09-05T14:49:34.294Z,3.77
2022-09-05T14:52:24.551Z,4.60
2022-09-05T15:02:46.361Z,5.17
2022-09-05T15:02:50.081Z,4.60
2022-09-05T15:06:43.101Z,4.80
2022-09-05T15:12:18.560Z,4.37
2022-09-05T15:12:33.174Z,4.10
2022-09-05T15:15:06.670Z,4.93
2022-09-05T15:17:39.782Z,5.07
2022-09-05T15:20:26.050Z,4.17
2022-09-05T15:22:58.345Z,6.10
2022-09-05T15:26:03.115Z,4.10
2022-09-05T15:28:38.983Z,4.23
2022-09-05T15:31:21.239Z,5.80
2022-09-05T15:33:54.971Z,3.87
2022-09-05T15:36:40.227Z,3.67
2022-09-05T15:39:22.550Z,4.20
2022-09-05T15:42:21.183Z,4.20
2022-09-05T15:45:10.740Z,4.03
2022-09-05T15:47:47.381Z,4.90
2022-09-05T15:50:22.524Z,5.23
2022-09-05T15:52:56.065Z,4.43
2022-09-05T15:55:28.058Z,4.50
2022-09-05T15:58:06.902Z,3.67
2022-09-05T16:00:51.223Z,5.10
2022-09-05T16:05:46.403Z,4.30
2022-09-05T16:10:42.752Z,4.40
2022-09-05T16:10:46.663Z,5.30
2022-09-05T16:12:47.672Z,3.70
2022-09-05T16:23:11.856Z,4.83
2022-09-05T16:23:23.592Z,4.67
2022-09-05T16:23:25.482Z,4.63
2022-09-05T16:24:59.813Z,4.83
2022-09-05T16:28:04.663Z,4.77
2022-09-05T16:30:39.636Z,4.43
2022-09-05T16:33:17.943Z,5.13
2022-09-05T16:36:01.177Z,5.00
2022-09-05T16:38:49.774Z,5.77
2022-09-05T16:41:46.735Z,5.10
2022-09-05T16:44:48.911Z,4.97
2022-09-05T16:47:55.234Z,4.70
2022-09-05T16:50:35.428Z,5.20
2022-09-05T16:53:39.271Z,5.13
2022-09-05T16:56:51.607Z,4.60
2022-09-05T16:59:28.485Z,4.40
2022-09-05T17:02:12.587Z,5.40
2022-09-05T17:05:04.411Z,3.60
2022-09-05T17:07:56.244Z,5.50
2022-09-05T17:10:57.290Z,5.40
2022-09-05T17:13:41.479Z,5.20
2022-09-05T17:16:40.139Z,5.13
2022-09-05T17:19:22.205Z,5.23
2022-09-05T17:26:00.504Z,5.20
2022-09-05T17:29:28.322Z,5.20
2022-09-05T17:29:29.474Z,5.17
2022-09-05T17:32:00.740Z,5.20
2022-09-05T17:34:49.726Z,5.10
2022-09-05T17:37:39.627Z,7.80
2022-09-05T17:40:25.182Z,7.00
2022-09-05T17:42:56.897Z,4.83
2022-09-05T17:45:29.845Z,5.90
2022-09-05T17:48:02.111Z,5.90
2022-09-05T17:50:44.054Z,5.27
2022-09-05T17:53:25.336Z,4.63
2022-09-05T17:55:58.766Z,5.90
2022-09-05T17:58:49.410Z,5.93
2022-09-05T18:01:28.845Z,5.30
2022-09-05T18:04:16.789Z,4.60
2022-09-05T18:06:58.878Z,4.80
2022-09-05T18:09:38.379Z,5.97
2022-09-05T18:12:34.548Z,6.00
2022-09-05T18:15:27.449Z,5.30
2022-09-05T18:18:02.482Z,6.23
2022-09-05T18:20:39.400Z,5.20
2022-09-05T18:23:28.451Z,6.27
2022-09-05T18:26:20.937Z,5.50
2022-09-05T18:29:07.453Z,6.33
2022-09-05T18:31:51.915Z,5.90
2022-09-05T18:34:32.055Z,5.60
2022-09-05T18:37:38.944Z,7.40
2022-09-05T18:40:47.704Z,6.83
2022-09-05T18:43:36.835Z,5.30
2022-09-05T18:46:20.602Z,6.07
2022-09-05T18:50:21.525Z,6.10
2022-09-05T18:52:10.396Z,6.73
2022-09-05T18:54:46.028Z,6.57
2022-09-05T18:57:39.454Z,5.00
2022-09-05T19:00:14.431Z,6.53
2022-09-05T19:02:58.796Z,6.43
2022-09-05T19:06:35.192Z,5.70
2022-09-05T19:08:57.567Z,6.60
2022-09-05T19:11:53.921Z,6.37
2022-09-05T19:14:47.005Z,5.60
2022-09-05T19:17:39.382Z,5.30
2022-09-05T19:20:32.100Z,5.70
2022-09-05T19:23:13.481Z,6.90
2022-09-05T19:25:51.754Z,5.83
2022-09-05T19:36:44.960Z,7.37
2022-09-05T19:36:51.631Z,6.20
2022-09-05T19:36:57.864Z,6.07
2022-09-05T19:37:37.514Z,5.83
2022-09-05T19:47:28.932Z,5.90
2022-09-05T19:47:41.663Z,6.20
2022-09-05T19:47:55.607Z,9.57
2022-09-05T19:49:13.320Z,8.23
2022-09-05T19:51:46.654Z,6.40
2022-09-05T19:54:40.135Z,5.83
2022-09-05T19:57:19.531Z,6.10
2022-09-05T20:00:01.889Z,6.73
2022-09-05T20:02:33.712Z,5.93
2022-09-05T20:05:09.213Z,6.33
2022-09-05T20:07:50.146Z,6.27
2022-09-05T20:10:25.622Z,7.70
2022-09-05T20:12:58.716Z,6.07
2022-09-05T20:15:37.345Z,6.40
2022-09-05T20:18:36.395Z,6.30
2022-09-05T20:21:21.471Z,6.00
2022-09-05T20:23:53.974Z,7.70
2022-09-05T20:26:30.589Z,5.80
2022-09-05T20:29:06.026Z,5.73
2022-09-05T20:31:38.031Z,6.30
2022-09-05T20:35:13.849Z,6.47
2022-09-05T20:43:08.914Z,7.90
2022-09-05T20:43:17.503Z,6.00
2022-09-05T20:43:27.334Z,6.60
2022-09-05T20:46:41.943Z,6.80
2022-09-05T20:54:08.141Z,6.10
2022-09-05T20:54:15.414Z,6.27
2022-09-05T20:54:42.414Z,5.70
2022-09-05T20:57:17.263Z,5.80
2022-09-05T20:59:49.327Z,5.70
2022-09-05T21:02:26.951Z,6.40
2022-09-05T21:05:21.004Z,7.50
2022-09-05T21:08:19.477Z,6.13
2022-09-05T21:10:55.676Z,6.10
2022-09-05T21:13:32.654Z,6.13
2022-09-05T21:16:21.280Z,6.30
2022-09-05T21:18:53.218Z,8.33
2022-09-05T21:21:31.109Z,6.80
2022-09-05T21:24:16.365Z,6.20
2022-09-05T21:26:50.382Z,6.50
2022-09-05T21:29:32.246Z,6.27
2022-09-05T21:32:11.214Z,6.95
2022-09-05T21:34:47.238Z,6.83
2022-09-05T21:37:19.434Z,9.37
2022-09-05T21:39:58.625Z,6.20
2022-09-05T21:45:18.090Z,6.10
2022-09-05T21:47:41.631Z,6.40
2022-09-05T21:48:16.205Z,6.20
2022-09-05T21:50:57.661Z,6.60
2022-09-05T21:59:14.321Z,6.33
2022-09-05T21:59:30.192Z,6.73
2022-09-05T21:59:55.236Z,12.40
2022-09-05T22:02:29.193Z,7.20
2022-09-05T22:05:03.591Z,6.90
2022-09-05T22:07:36.265Z,9.67
2022-09-05T22:10:08.869Z,6.90
2022-09-05T22:12:40.918Z,6.17
2022-09-05T22:15:32.850Z,6.23
2022-09-05T22:18:17.510Z,9.03
2022-09-05T22:21:31.887Z,5.63
2022-09-05T22:23:48.611Z,6.63
2022-09-05T22:26:21.362Z,6.90
2022-09-05T22:28:53.098Z,7.03
2022-09-05T22:31:26.112Z,6.00
2022-09-05T22:33:58.489Z,6.40
2022-09-05T22:36:30.307Z,10.03
2022-09-05T22:39:02.739Z,6.50
2022-09-05T22:41:34.766Z,6.40
2022-09-05T22:44:06.573Z,13.63
2022-09-05T22:46:38.321Z,10.43
2022-09-05T22:49:10.131Z,7.33
2022-09-05T22:51:41.869Z,8.90
2022-09-05T22:54:13.675Z,7.00
2022-09-05T22:56:45.462Z,6.90
2022-09-05T22:59:17.184Z,6.33
2022-09-05T23:01:50.334Z,6.63
2022-09-05T23:04:22.323Z,7.13
2022-09-05T23:06:54.078Z,5.90
2022-09-05T23:09:25.842Z,6.47
2022-09-05T23:11:57.563Z,7.43
2022-09-05T23:14:29.278Z,7.13
2022-09-05T23:17:00.994Z,8.37
2022-09-05T23:19:32.736Z,6.93
2022-09-05T23:22:04.521Z,7.00
2022-09-05T23:24:36.237Z,7.90
2022-09-05T23:27:07.942Z,7.80
2022-09-05T23:29:39.678Z,8.10
2022-09-05T23:32:11.535Z,9.23
2022-09-05T23:34:43.574Z,9.17
2022-09-05T23:37:15.271Z,6.57
2022-09-05T23:39:47.041Z,6.80
2022-09-05T23:42:18.888Z,7.80
2022-09-05T23:44:50.615Z,7.20
2022-09-05T23:47:22.425Z,7.03
2022-09-05T23:49:54.143Z,7.20
2022-09-05T23:52:25.899Z,6.40
2022-09-05T23:54:57.683Z,7.33
2022-09-05T23:57:29.414Z,5.73
